sensor_id;sensor_type;location;lat;lon;timestamp;temperature;humidity
44513;DHT22;30219;50.588;9.504;2022-12-18T00:01:34;-10.70;99.90
44513;DHT22;30219;50.588;9.504;2022-12-18T00:04:03;-10.70;99.90
44513;DHT22;30219;50.588;9.504;2022-12-18T00:06:32;-10.70;99.90
44513;DHT22;30219;50.588;9.504;2022-12-18T00:09:00;-10.70;99.90
44513;DHT22;30219;50.588;9.504;2022-12-18T00:11:28;-10.90;99.90
44513;DHT22;30219;50.588;9.504;2022-12-18T00:13:56;-11.00;99.90
44513;DHT22;30219;50.588;9.504;2022-12-18T00:16:24;-11.00;99.90
44513;DHT22;30219;50.588;9.504;2022-12-18T00:18:53;-11.00;99.90
44513;DHT22;30219;50.588;9.504;2022-12-18T00:21:19;-11.00;99.90
44513;DHT22;30219;50.588;9.504;2022-12-18T00:23:46;-11.00;99.90
44513;DHT22;30219;50.588;9.504;2022-12-18T00:26:20;-11.00;99.90
44513;DHT22;30219;50.588;9.504;2022-12-18T00:28:47;-11.00;99.90
44513;DHT22;30219;50.588;9.504;2022-12-18T00:31:15;-10.90;99.90
44513;DHT22;30219;50.588;9.504;2022-12-18T00:33:41;-10.90;99.90
44513;DHT22;30219;50.588;9.504;2022-12-18T00:36:11;-10.90;99.90
44513;DHT22;30219;50.588;9.504;2022-12-18T00:38:37;-10.80;99.90
44513;DHT22;30219;50.588;9.504;2022-12-18T00:41:03;-10.80;99.90
44513;DHT22;30219;50.588;9.504;2022-12-18T00:43:29;-10.90;99.90
44513;DHT22;30219;50.588;9.504;2022-12-18T00:45:55;-10.90;99.90
44513;DHT22;30219;50.588;9.504;2022-12-18T00:48:20;-11.10;99.90
44513;DHT22;30219;50.588;9.504;2022-12-18T00:50:48;-11.10;99.90
44513;DHT22;30219;50.588;9.504;2022-12-18T00:53:13;-11.20;99.90
44513;DHT22;30219;50.588;9.504;2022-12-18T00:55:39;-11.20;99.90
44513;DHT22;30219;50.588;9.504;2022-12-18T00:58:05;-11.20;99.90
44513;DHT22;30219;50.588;9.504;2022-12-18T01:00:31;-11.10;99.90
44513;DHT22;30219;50.588;9.504;2022-12-18T01:02:56;-11.10;99.90
44513;DHT22;30219;50.588;9.504;2022-12-18T01:05:22;-11.10;99.90
44513;DHT22;30219;50.588;9.504;2022-12-18T01:07:47;-11.10;99.90
44513;DHT22;30219;50.588;9.504;2022-12-18T01:10:13;-11.20;99.90
44513;DHT22;30219;50.588;9.504;2022-12-18T01:12:39;-11.30;99.90
44513;DHT22;30219;50.588;9.504;2022-12-18T01:15:05;-11.40;99.90
44513;DHT22;30219;50.588;9.504;2022-12-18T01:17:32;-11.40;99.90
44513;DHT22;30219;50.588;9.504;2022-12-18T01:19:57;-11.40;99.90
44513;DHT22;30219;50.588;9.504;2022-12-18T01:22:23;-11.40;99.90
44513;DHT22;30219;50.588;9.504;2022-12-18T01:24:48;-11.30;99.90
44513;DHT22;30219;50.588;9.504;2022-12-18T01:27:14;-11.30;99.90
44513;DHT22;30219;50.588;9.504;2022-12-18T01:29:40;-11.40;99.90
44513;DHT22;30219;50.588;9.504;2022-12-18T01:32:05;-11.40;99.90
44513;DHT22;30219;50.588;9.504;2022-12-18T01:34:31;-11.40;99.90
44513;DHT22;30219;50.588;9.504;2022-12-18T01:36:57;-11.30;99.90
44513;DHT22;30219;50.588;9.504;2022-12-18T01:39:23;-11.30;99.90
44513;DHT22;30219;50.588;9.504;2022-12-18T01:41:49;-11.30;99.90
44513;DHT22;30219;50.588;9.504;2022-12-18T01:49:55;-11.40;99.90
44513;DHT22;30219;50.588;9.504;2022-12-18T01:52:22;-11.40;99.90
44513;DHT22;30219;50.588;9.504;2022-12-18T01:54:50;-11.40;99.90
44513;DHT22;30219;50.588;9.504;2022-12-18T01:57:17;-11.50;99.90
44513;DHT22;30219;50.588;9.504;2022-12-18T01:59:45;-11.50;99.90
44513;DHT22;30219;50.588;9.504;2022-12-18T02:02:12;-11.50;99.90
44513;DHT22;30219;50.588;9.504;2022-12-18T02:04:41;-11.50;99.90
44513;DHT22;30219;50.588;9.504;2022-12-18T02:10:01;-11.50;99.90
44513;DHT22;30219;50.588;9.504;2022-12-18T02:12:49;-11.70;99.90
44513;DHT22;30219;50.588;9.504;2022-12-18T02:17:59;-11.70;99.90
44513;DHT22;30219;50.588;9.504;2022-12-18T02:20:40;-11.80;99.90
44513;DHT22;30219;50.588;9.504;2022-12-18T02:23:23;-11.90;99.90
44513;DHT22;30219;50.588;9.504;2022-12-18T02:26:22;-11.80;99.90
44513;DHT22;30219;50.588;9.504;2022-12-18T02:29:03;-11.80;99.90
44513;DHT22;30219;50.588;9.504;2022-12-18T02:31:35;-11.90;99.90
44513;DHT22;30219;50.588;9.504;2022-12-18T02:34:04;-11.90;99.90
44513;DHT22;30219;50.588;9.504;2022-12-18T02:36:32;-11.90;99.90
44513;DHT22;30219;50.588;9.504;2022-12-18T02:38:59;-12.00;99.90
44513;DHT22;30219;50.588;9.504;2022-12-18T02:41:27;-12.00;99.90
44513;DHT22;30219;50.588;9.504;2022-12-18T02:43:56;-12.00;99.90
44513;DHT22;30219;50.588;9.504;2022-12-18T02:46:37;-12.00;99.90
44513;DHT22;30219;50.588;9.504;2022-12-18T02:49:26;-12.00;99.90
44513;DHT22;30219;50.588;9.504;2022-12-18T02:51:58;-12.00;99.90
44513;DHT22;30219;50.588;9.504;2022-12-18T02:54:42;-12.10;99.90
44513;DHT22;30219;50.588;9.504;2022-12-18T03:00:16;-12.20;99.90
44513;DHT22;30219;50.588;9.504;2022-12-18T03:05:16;-12.10;99.90
44513;DHT22;30219;50.588;9.504;2022-12-18T03:07:56;-12.10;99.90
44513;DHT22;30219;50.588;9.504;2022-12-18T03:10:26;-12.20;99.90
44513;DHT22;30219;50.588;9.504;2022-12-18T03:13:06;-12.20;99.90
44513;DHT22;30219;50.588;9.504;2022-12-18T03:15:47;-12.20;99.90
44513;DHT22;30219;50.588;9.504;2022-12-18T03:18:25;-12.20;99.90
44513;DHT22;30219;50.588;9.504;2022-12-18T03:20:54;-12.20;99.90
44513;DHT22;30219;50.588;9.504;2022-12-18T03:23:25;-12.20;99.90
44513;DHT22;30219;50.588;9.504;2022-12-18T03:25:55;-12.30;99.90
44513;DHT22;30219;50.588;9.504;2022-12-18T03:28:22;-12.20;99.90
44513;DHT22;30219;50.588;9.504;2022-12-18T03:30:54;-12.20;99.90
44513;DHT22;30219;50.588;9.504;2022-12-18T03:33:27;-12.20;99.90
44513;DHT22;30219;50.588;9.504;2022-12-18T03:35:55;-12.30;99.90
44513;DHT22;30219;50.588;9.504;2022-12-18T03:38:20;-12.30;99.90
44513;DHT22;30219;50.588;9.504;2022-12-18T03:43:57;-12.40;99.90
44513;DHT22;30219;50.588;9.504;2022-12-18T03:46:41;-12.40;99.90
44513;DHT22;30219;50.588;9.504;2022-12-18T03:49:16;-12.50;99.90
44513;DHT22;30219;50.588;9.504;2022-12-18T03:52:27;-12.50;99.90
44513;DHT22;30219;50.588;9.504;2022-12-18T03:54:35;-12.40;99.90
44513;DHT22;30219;50.588;9.504;2022-12-18T03:57:06;-12.50;99.90
44513;DHT22;30219;50.588;9.504;2022-12-18T03:59:33;-12.50;99.90
44513;DHT22;30219;50.588;9.504;2022-12-18T04:02:01;-12.50;99.90
44513;DHT22;30219;50.588;9.504;2022-12-18T04:04:31;-12.50;99.90
44513;DHT22;30219;50.588;9.504;2022-12-18T04:06:58;-12.40;99.90
44513;DHT22;30219;50.588;9.504;2022-12-18T04:09:24;-12.40;99.90
44513;DHT22;30219;50.588;9.504;2022-12-18T04:11:51;-12.40;99.90
44513;DHT22;30219;50.588;9.504;2022-12-18T04:14:17;-12.50;99.90
44513;DHT22;30219;50.588;9.504;2022-12-18T04:16:42;-12.50;99.90
44513;DHT22;30219;50.588;9.504;2022-12-18T04:19:08;-12.60;99.90
44513;DHT22;30219;50.588;9.504;2022-12-18T04:21:34;-12.60;99.90
44513;DHT22;30219;50.588;9.504;2022-12-18T04:23:59;-12.60;99.90
44513;DHT22;30219;50.588;9.504;2022-12-18T04:26:25;-12.60;99.90
44513;DHT22;30219;50.588;9.504;2022-12-18T04:28:50;-12.60;99.90
44513;DHT22;30219;50.588;9.504;2022-12-18T04:31:16;-12.70;99.90
44513;DHT22;30219;50.588;9.504;2022-12-18T04:33:41;-12.70;99.90
44513;DHT22;30219;50.588;9.504;2022-12-18T04:36:07;-12.70;99.90
44513;DHT22;30219;50.588;9.504;2022-12-18T04:38:33;-12.80;99.90
44513;DHT22;30219;50.588;9.504;2022-12-18T04:40:58;-12.80;99.90
44513;DHT22;30219;50.588;9.504;2022-12-18T04:43:24;-12.80;99.90
44513;DHT22;30219;50.588;9.504;2022-12-18T04:45:49;-12.80;99.90
44513;DHT22;30219;50.588;9.504;2022-12-18T04:48:15;-12.80;99.90
44513;DHT22;30219;50.588;9.504;2022-12-18T04:50:40;-12.80;99.90
44513;DHT22;30219;50.588;9.504;2022-12-18T04:53:06;-12.80;99.90
44513;DHT22;30219;50.588;9.504;2022-12-18T04:55:31;-12.80;99.90
44513;DHT22;30219;50.588;9.504;2022-12-18T04:57:57;-12.80;99.90
44513;DHT22;30219;50.588;9.504;2022-12-18T05:00:22;-12.90;99.90
44513;DHT22;30219;50.588;9.504;2022-12-18T05:02:48;-12.90;99.90
44513;DHT22;30219;50.588;9.504;2022-12-18T05:05:13;-12.90;99.90
44513;DHT22;30219;50.588;9.504;2022-12-18T05:07:39;-12.90;99.90
44513;DHT22;30219;50.588;9.504;2022-12-18T05:10:08;-12.90;99.90
44513;DHT22;30219;50.588;9.504;2022-12-18T05:12:34;-12.80;99.90
44513;DHT22;30219;50.588;9.504;2022-12-18T05:15:19;-12.90;99.90
44513;DHT22;30219;50.588;9.504;2022-12-18T05:17:45;-12.90;99.90
44513;DHT22;30219;50.588;9.504;2022-12-18T05:20:10;-12.90;99.90
44513;DHT22;30219;50.588;9.504;2022-12-18T05:22:36;-12.90;99.90
44513;DHT22;30219;50.588;9.504;2022-12-18T05:25:01;-13.00;99.90
44513;DHT22;30219;50.588;9.504;2022-12-18T05:27:27;-13.00;99.90
44513;DHT22;30219;50.588;9.504;2022-12-18T05:29:52;-13.00;99.90
44513;DHT22;30219;50.588;9.504;2022-12-18T05:32:18;-13.10;99.90
44513;DHT22;30219;50.588;9.504;2022-12-18T05:34:43;-13.10;99.90
44513;DHT22;30219;50.588;9.504;2022-12-18T05:37:09;-13.00;99.90
44513;DHT22;30219;50.588;9.504;2022-12-18T05:39:34;-13.00;99.90
44513;DHT22;30219;50.588;9.504;2022-12-18T05:42:00;-13.00;99.90
44513;DHT22;30219;50.588;9.504;2022-12-18T05:44:25;-13.00;99.90
44513;DHT22;30219;50.588;9.504;2022-12-18T05:46:51;-13.00;99.90
44513;DHT22;30219;50.588;9.504;2022-12-18T05:49:16;-13.00;99.90
44513;DHT22;30219;50.588;9.504;2022-12-18T05:51:42;-13.00;99.90
44513;DHT22;30219;50.588;9.504;2022-12-18T05:54:07;-13.10;99.90
44513;DHT22;30219;50.588;9.504;2022-12-18T05:56:33;-13.10;99.90
44513;DHT22;30219;50.588;9.504;2022-12-18T05:58:58;-13.10;99.90
44513;DHT22;30219;50.588;9.504;2022-12-18T06:01:25;-13.10;99.90
44513;DHT22;30219;50.588;9.504;2022-12-18T06:03:51;-13.10;99.90
44513;DHT22;30219;50.588;9.504;2022-12-18T06:06:20;-13.10;99.90
44513;DHT22;30219;50.588;9.504;2022-12-18T06:08:47;-13.10;99.90
44513;DHT22;30219;50.588;9.504;2022-12-18T06:11:15;-13.10;99.90
44513;DHT22;30219;50.588;9.504;2022-12-18T06:13:41;-13.20;99.90
44513;DHT22;30219;50.588;9.504;2022-12-18T06:16:07;-13.10;99.90
44513;DHT22;30219;50.588;9.504;2022-12-18T06:18:33;-13.20;99.90
44513;DHT22;30219;50.588;9.504;2022-12-18T06:21:00;-13.20;99.90
44513;DHT22;30219;50.588;9.504;2022-12-18T06:23:25;-13.30;99.90
44513;DHT22;30219;50.588;9.504;2022-12-18T06:25:51;-13.30;99.90
44513;DHT22;30219;50.588;9.504;2022-12-18T06:28:17;-13.30;99.90
44513;DHT22;30219;50.588;9.504;2022-12-18T06:30:44;-13.20;99.90
44513;DHT22;30219;50.588;9.504;2022-12-18T06:33:10;-13.20;99.90
44513;DHT22;30219;50.588;9.504;2022-12-18T06:35:35;-13.20;99.90
44513;DHT22;30219;50.588;9.504;2022-12-18T06:38:01;-13.30;99.90
44513;DHT22;30219;50.588;9.504;2022-12-18T06:40:28;-13.20;99.90
44513;DHT22;30219;50.588;9.504;2022-12-18T06:42:53;-13.20;99.90
44513;DHT22;30219;50.588;9.504;2022-12-18T06:45:19;-13.20;99.90
44513;DHT22;30219;50.588;9.504;2022-12-18T06:47:44;-13.30;99.90
44513;DHT22;30219;50.588;9.504;2022-12-18T06:50:10;-13.30;99.90
44513;DHT22;30219;50.588;9.504;2022-12-18T06:52:35;-13.20;99.90
44513;DHT22;30219;50.588;9.504;2022-12-18T06:55:02;-13.20;99.90
44513;DHT22;30219;50.588;9.504;2022-12-18T06:57:27;-13.30;99.90
44513;DHT22;30219;50.588;9.504;2022-12-18T06:59:53;-13.30;99.90
44513;DHT22;30219;50.588;9.504;2022-12-18T07:02:19;-13.30;99.90
44513;DHT22;30219;50.588;9.504;2022-12-18T07:04:44;-13.30;99.90
44513;DHT22;30219;50.588;9.504;2022-12-18T07:07:10;-13.30;99.90
44513;DHT22;30219;50.588;9.504;2022-12-18T07:09:35;-13.40;99.90
44513;DHT22;30219;50.588;9.504;2022-12-18T07:12:01;-13.30;99.90
44513;DHT22;30219;50.588;9.504;2022-12-18T07:14:26;-13.40;99.90
44513;DHT22;30219;50.588;9.504;2022-12-18T07:16:52;-13.30;99.90
44513;DHT22;30219;50.588;9.504;2022-12-18T07:19:17;-13.30;99.90
44513;DHT22;30219;50.588;9.504;2022-12-18T07:21:43;-13.30;99.90
44513;DHT22;30219;50.588;9.504;2022-12-18T07:24:08;-13.30;99.90
44513;DHT22;30219;50.588;9.504;2022-12-18T07:26:34;-13.30;99.90
44513;DHT22;30219;50.588;9.504;2022-12-18T07:28:59;-13.30;99.90
44513;DHT22;30219;50.588;9.504;2022-12-18T07:31:26;-13.30;99.90
44513;DHT22;30219;50.588;9.504;2022-12-18T07:33:52;-13.30;99.90
44513;DHT22;30219;50.588;9.504;2022-12-18T07:36:18;-13.20;99.90
44513;DHT22;30219;50.588;9.504;2022-12-18T07:38:47;-13.20;99.90
44513;DHT22;30219;50.588;9.504;2022-12-18T07:41:14;-13.20;99.90
44513;DHT22;30219;50.588;9.504;2022-12-18T07:43:40;-13.10;99.90
44513;DHT22;30219;50.588;9.504;2022-12-18T07:46:07;-13.10;99.90
44513;DHT22;30219;50.588;9.504;2022-12-18T07:48:32;-13.10;99.90
44513;DHT22;30219;50.588;9.504;2022-12-18T07:50:59;-13.10;99.90
44513;DHT22;30219;50.588;9.504;2022-12-18T07:53:26;-13.10;99.90
44513;DHT22;30219;50.588;9.504;2022-12-18T07:55:59;-13.10;99.90
44513;DHT22;30219;50.588;9.504;2022-12-18T07:58:24;-13.00;99.90
44513;DHT22;30219;50.588;9.504;2022-12-18T08:00:50;-13.00;99.90
44513;DHT22;30219;50.588;9.504;2022-12-18T08:03:17;-13.00;99.90
44513;DHT22;30219;50.588;9.504;2022-12-18T08:05:43;-13.00;99.90
44513;DHT22;30219;50.588;9.504;2022-12-18T08:08:08;-13.00;99.90
44513;DHT22;30219;50.588;9.504;2022-12-18T08:10:34;-13.00;99.90
44513;DHT22;30219;50.588;9.504;2022-12-18T08:13:00;-12.90;99.90
44513;DHT22;30219;50.588;9.504;2022-12-18T08:15:25;-12.80;99.90
44513;DHT22;30219;50.588;9.504;2022-12-18T08:17:51;-12.70;99.90
44513;DHT22;30219;50.588;9.504;2022-12-18T08:20:16;-12.60;99.90
44513;DHT22;30219;50.588;9.504;2022-12-18T08:22:43;-12.50;99.90
44513;DHT22;30219;50.588;9.504;2022-12-18T08:25:10;-12.50;99.90
44513;DHT22;30219;50.588;9.504;2022-12-18T08:27:36;-12.40;99.90
44513;DHT22;30219;50.588;9.504;2022-12-18T08:30:02;-12.20;99.90
44513;DHT22;30219;50.588;9.504;2022-12-18T08:32:28;-11.80;99.90
44513;DHT22;30219;50.588;9.504;2022-12-18T08:34:54;-11.20;99.90
44513;DHT22;30219;50.588;9.504;2022-12-18T08:37:19;-10.40;99.90
44513;DHT22;30219;50.588;9.504;2022-12-18T08:39:45;-9.70;99.90
44513;DHT22;30219;50.588;9.504;2022-12-18T08:42:10;-9.20;99.90
44513;DHT22;30219;50.588;9.504;2022-12-18T08:44:55;-8.80;99.90
44513;DHT22;30219;50.588;9.504;2022-12-18T08:47:21;-8.40;99.90
44513;DHT22;30219;50.588;9.504;2022-12-18T08:49:46;-8.40;99.90
44513;DHT22;30219;50.588;9.504;2022-12-18T08:52:14;-8.40;99.90
44513;DHT22;30219;50.588;9.504;2022-12-18T08:54:40;-8.10;99.90
44513;DHT22;30219;50.588;9.504;2022-12-18T08:57:06;-7.80;99.90
44513;DHT22;30219;50.588;9.504;2022-12-18T08:59:32;-7.40;99.90
44513;DHT22;30219;50.588;9.504;2022-12-18T09:01:57;-7.10;99.90
44513;DHT22;30219;50.588;9.504;2022-12-18T09:04:23;-6.70;99.90
44513;DHT22;30219;50.588;9.504;2022-12-18T09:06:49;-6.50;99.90
44513;DHT22;30219;50.588;9.504;2022-12-18T09:09:14;-6.20;99.90
44513;DHT22;30219;50.588;9.504;2022-12-18T09:11:40;-6.00;99.90
44513;DHT22;30219;50.588;9.504;2022-12-18T09:14:06;-5.90;99.90
44513;DHT22;30219;50.588;9.504;2022-12-18T09:16:32;-5.80;99.90
44513;DHT22;30219;50.588;9.504;2022-12-18T09:19:03;-5.90;99.90
44513;DHT22;30219;50.588;9.504;2022-12-18T09:21:31;-5.90;99.90
44513;DHT22;30219;50.588;9.504;2022-12-18T09:23:56;-6.00;99.90
44513;DHT22;30219;50.588;9.504;2022-12-18T09:26:24;-5.90;99.90
44513;DHT22;30219;50.588;9.504;2022-12-18T09:28:50;-5.60;99.90
44513;DHT22;30219;50.588;9.504;2022-12-18T09:31:18;-5.40;99.90
44513;DHT22;30219;50.588;9.504;2022-12-18T09:33:44;-5.30;99.90
44513;DHT22;30219;50.588;9.504;2022-12-18T09:36:12;-5.30;99.90
44513;DHT22;30219;50.588;9.504;2022-12-18T09:38:38;-5.00;99.90
44513;DHT22;30219;50.588;9.504;2022-12-18T09:43:58;-4.10;99.90
44513;DHT22;30219;50.588;9.504;2022-12-18T09:46:34;-3.60;99.90
44513;DHT22;30219;50.588;9.504;2022-12-18T09:49:06;-3.60;99.90
44513;DHT22;30219;50.588;9.504;2022-12-18T09:51:39;-3.40;99.90
44513;DHT22;30219;50.588;9.504;2022-12-18T09:54:12;-3.80;99.90
44513;DHT22;30219;50.588;9.504;2022-12-18T09:56:41;-4.00;99.90
44513;DHT22;30219;50.588;9.504;2022-12-18T09:59:18;-4.00;99.90
44513;DHT22;30219;50.588;9.504;2022-12-18T10:01:45;-4.10;99.90
44513;DHT22;30219;50.588;9.504;2022-12-18T10:04:11;-3.60;99.90
44513;DHT22;30219;50.588;9.504;2022-12-18T10:12:17;-2.30;99.90
44513;DHT22;30219;50.588;9.504;2022-12-18T10:17:51;-2.20;99.90
44513;DHT22;30219;50.588;9.504;2022-12-18T10:20:51;-2.00;99.90
44513;DHT22;30219;50.588;9.504;2022-12-18T10:23:34;-2.00;99.90
44513;DHT22;30219;50.588;9.504;2022-12-18T10:28:32;-2.60;99.90
44513;DHT22;30219;50.588;9.504;2022-12-18T10:30:58;-2.80;99.90
44513;DHT22;30219;50.588;9.504;2022-12-18T10:33:27;-2.50;99.90
44513;DHT22;30219;50.588;9.504;2022-12-18T10:35:54;-2.60;99.90
44513;DHT22;30219;50.588;9.504;2022-12-18T10:38:26;-2.70;99.90
44513;DHT22;30219;50.588;9.504;2022-12-18T10:43:29;-2.20;99.90
44513;DHT22;30219;50.588;9.504;2022-12-18T10:46:12;-1.60;99.90
44513;DHT22;30219;50.588;9.504;2022-12-18T10:49:00;-1.50;99.70
44513;DHT22;30219;50.588;9.504;2022-12-18T10:53:54;-1.10;99.90
44513;DHT22;30219;50.588;9.504;2022-12-18T10:56:21;-0.60;99.90
44513;DHT22;30219;50.588;9.504;2022-12-18T10:58:57;-0.70;99.60
44513;DHT22;30219;50.588;9.504;2022-12-18T11:01:23;-0.70;99.80
44513;DHT22;30219;50.588;9.504;2022-12-18T11:06:22;-0.50;99.90
44513;DHT22;30219;50.588;9.504;2022-12-18T11:11:32;-0.90;99.90
44513;DHT22;30219;50.588;9.504;2022-12-18T11:16:33;-1.60;99.90
44513;DHT22;30219;50.588;9.504;2022-12-18T11:21:54;-1.50;99.90
44513;DHT22;30219;50.588;9.504;2022-12-18T11:24:28;-1.50;99.90
44513;DHT22;30219;50.588;9.504;2022-12-18T11:26:57;-1.60;99.90
44513;DHT22;30219;50.588;9.504;2022-12-18T11:34:42;-2.30;99.90
44513;DHT22;30219;50.588;9.504;2022-12-18T11:37:11;-2.40;99.90
44513;DHT22;30219;50.588;9.504;2022-12-18T11:39:59;-2.30;99.90
44513;DHT22;30219;50.588;9.504;2022-12-18T11:48:06;-3.10;99.90
44513;DHT22;30219;50.588;9.504;2022-12-18T11:53:13;-3.20;99.90
44513;DHT22;30219;50.588;9.504;2022-12-18T11:59:09;-2.90;99.90
44513;DHT22;30219;50.588;9.504;2022-12-18T12:16:15;-2.50;99.90
44513;DHT22;30219;50.588;9.504;2022-12-18T12:21:24;-2.60;99.90
44513;DHT22;30219;50.588;9.504;2022-12-18T12:26:40;-3.00;99.90
44513;DHT22;30219;50.588;9.504;2022-12-18T12:29:17;-2.80;99.90
44513;DHT22;30219;50.588;9.504;2022-12-18T12:34:34;-2.70;99.90
44513;DHT22;30219;50.588;9.504;2022-12-18T12:37:26;-2.70;99.90
44513;DHT22;30219;50.588;9.504;2022-12-18T12:39:56;-2.70;99.90
44513;DHT22;30219;50.588;9.504;2022-12-18T12:42:46;-2.80;99.90
44513;DHT22;30219;50.588;9.504;2022-12-18T12:48:21;-3.10;99.90
44513;DHT22;30219;50.588;9.504;2022-12-18T12:50:50;-3.20;99.90
44513;DHT22;30219;50.588;9.504;2022-12-18T12:53:36;-3.30;99.90
44513;DHT22;30219;50.588;9.504;2022-12-18T12:56:03;-3.30;99.90
44513;DHT22;30219;50.588;9.504;2022-12-18T12:58:57;-3.40;99.90
44513;DHT22;30219;50.588;9.504;2022-12-18T13:01:36;-3.50;99.90
44513;DHT22;30219;50.588;9.504;2022-12-18T13:04:10;-3.70;99.90
44513;DHT22;30219;50.588;9.504;2022-12-18T13:09:31;-3.60;99.90
44513;DHT22;30219;50.588;9.504;2022-12-18T13:12:02;-3.60;99.90
44513;DHT22;30219;50.588;9.504;2022-12-18T13:14:47;-3.40;99.90
44513;DHT22;30219;50.588;9.504;2022-12-18T13:22:46;-3.10;99.90
44513;DHT22;30219;50.588;9.504;2022-12-18T13:25:42;-3.10;99.90
44513;DHT22;30219;50.588;9.504;2022-12-18T13:28:13;-3.00;99.90
44513;DHT22;30219;50.588;9.504;2022-12-18T13:30:48;-3.10;99.90
44513;DHT22;30219;50.588;9.504;2022-12-18T13:35:41;-3.30;99.90
44513;DHT22;30219;50.588;9.504;2022-12-18T13:38:36;-3.40;99.90
44513;DHT22;30219;50.588;9.504;2022-12-18T13:41:20;-3.50;99.90
44513;DHT22;30219;50.588;9.504;2022-12-18T13:43:55;-3.50;99.90
44513;DHT22;30219;50.588;9.504;2022-12-18T13:46:29;-3.60;99.90
44513;DHT22;30219;50.588;9.504;2022-12-18T13:51:59;-3.90;99.90
44513;DHT22;30219;50.588;9.504;2022-12-18T13:56:53;-4.20;99.90
44513;DHT22;30219;50.588;9.504;2022-12-18T13:59:23;-4.20;99.90
44513;DHT22;30219;50.588;9.504;2022-12-18T14:01:56;-4.30;99.90
44513;DHT22;30219;50.588;9.504;2022-12-18T14:04:25;-4.30;99.90
44513;DHT22;30219;50.588;9.504;2022-12-18T14:06:55;-4.40;99.90
44513;DHT22;30219;50.588;9.504;2022-12-18T14:09:25;-4.50;99.90
44513;DHT22;30219;50.588;9.504;2022-12-18T14:11:52;-4.50;99.90
44513;DHT22;30219;50.588;9.504;2022-12-18T14:14:42;-4.50;99.90
44513;DHT22;30219;50.588;9.504;2022-12-18T14:17:10;-4.60;99.90
44513;DHT22;30219;50.588;9.504;2022-12-18T14:19:37;-4.60;99.90
44513;DHT22;30219;50.588;9.504;2022-12-18T14:22:21;-4.70;99.90
44513;DHT22;30219;50.588;9.504;2022-12-18T14:24:47;-4.80;99.90
44513;DHT22;30219;50.588;9.504;2022-12-18T14:27:29;-4.80;99.90
44513;DHT22;30219;50.588;9.504;2022-12-18T14:29:55;-4.90;99.90
44513;DHT22;30219;50.588;9.504;2022-12-18T14:32:20;-4.90;99.90
44513;DHT22;30219;50.588;9.504;2022-12-18T14:34:53;-5.00;99.90
44513;DHT22;30219;50.588;9.504;2022-12-18T14:37:24;-5.00;99.90
44513;DHT22;30219;50.588;9.504;2022-12-18T14:40:01;-5.00;99.90
44513;DHT22;30219;50.588;9.504;2022-12-18T14:42:32;-5.00;99.90
44513;DHT22;30219;50.588;9.504;2022-12-18T14:47:58;-5.10;99.90
44513;DHT22;30219;50.588;9.504;2022-12-18T14:50:24;-5.10;99.90
44513;DHT22;30219;50.588;9.504;2022-12-18T14:52:50;-5.10;99.90
44513;DHT22;30219;50.588;9.504;2022-12-18T14:55:20;-5.20;99.90
44513;DHT22;30219;50.588;9.504;2022-12-18T14:57:50;-5.20;99.90
44513;DHT22;30219;50.588;9.504;2022-12-18T15:00:22;-5.10;99.90
44513;DHT22;30219;50.588;9.504;2022-12-18T15:02:56;-5.10;99.90
44513;DHT22;30219;50.588;9.504;2022-12-18T15:05:28;-5.20;99.90
44513;DHT22;30219;50.588;9.504;2022-12-18T15:07:56;-5.20;99.90
44513;DHT22;30219;50.588;9.504;2022-12-18T15:10:24;-5.20;99.90
44513;DHT22;30219;50.588;9.504;2022-12-18T15:13:07;-5.10;99.90
44513;DHT22;30219;50.588;9.504;2022-12-18T15:26:06;-5.10;99.90
44513;DHT22;30219;50.588;9.504;2022-12-18T15:28:43;-5.10;99.90
44513;DHT22;30219;50.588;9.504;2022-12-18T15:33:45;-5.10;99.90
44513;DHT22;30219;50.588;9.504;2022-12-18T15:36:17;-5.10;99.90
44513;DHT22;30219;50.588;9.504;2022-12-18T15:38:50;-5.10;99.90
44513;DHT22;30219;50.588;9.504;2022-12-18T15:41:18;-5.10;99.90
44513;DHT22;30219;50.588;9.504;2022-12-18T15:43:45;-5.10;99.90
44513;DHT22;30219;50.588;9.504;2022-12-18T15:46:13;-5.10;99.90
44513;DHT22;30219;50.588;9.504;2022-12-18T15:48:41;-5.10;99.90
44513;DHT22;30219;50.588;9.504;2022-12-18T15:51:18;-5.00;99.90
44513;DHT22;30219;50.588;9.504;2022-12-18T15:53:46;-5.00;99.90
44513;DHT22;30219;50.588;9.504;2022-12-18T15:56:13;-5.00;99.90
44513;DHT22;30219;50.588;9.504;2022-12-18T15:58:58;-5.00;99.90
44513;DHT22;30219;50.588;9.504;2022-12-18T16:01:27;-5.00;99.90
44513;DHT22;30219;50.588;9.504;2022-12-18T16:03:53;-5.00;99.90
44513;DHT22;30219;50.588;9.504;2022-12-18T16:06:19;-5.00;99.90
44513;DHT22;30219;50.588;9.504;2022-12-18T16:08:45;-5.00;99.90
44513;DHT22;30219;50.588;9.504;2022-12-18T16:13:46;-4.90;99.90
44513;DHT22;30219;50.588;9.504;2022-12-18T16:16:11;-4.80;99.90
44513;DHT22;30219;50.588;9.504;2022-12-18T16:18:37;-4.70;99.90
44513;DHT22;30219;50.588;9.504;2022-12-18T16:21:02;-4.70;99.90
44513;DHT22;30219;50.588;9.504;2022-12-18T16:23:28;-4.60;99.90
44513;DHT22;30219;50.588;9.504;2022-12-18T16:25:53;-4.50;99.90
44513;DHT22;30219;50.588;9.504;2022-12-18T16:28:19;-4.50;99.90
44513;DHT22;30219;50.588;9.504;2022-12-18T16:30:44;-4.50;99.90
44513;DHT22;30219;50.588;9.504;2022-12-18T16:33:10;-4.40;99.90
44513;DHT22;30219;50.588;9.504;2022-12-18T16:35:36;-4.40;99.90
44513;DHT22;30219;50.588;9.504;2022-12-18T16:38:02;-4.40;99.90
44513;DHT22;30219;50.588;9.504;2022-12-18T16:40:28;-4.30;99.90
44513;DHT22;30219;50.588;9.504;2022-12-18T16:42:56;-4.30;99.90
44513;DHT22;30219;50.588;9.504;2022-12-18T16:45:22;-4.20;99.90
44513;DHT22;30219;50.588;9.504;2022-12-18T16:47:47;-4.10;99.90
44513;DHT22;30219;50.588;9.504;2022-12-18T16:50:13;-4.10;99.90
44513;DHT22;30219;50.588;9.504;2022-12-18T16:52:39;-4.00;99.90
44513;DHT22;30219;50.588;9.504;2022-12-18T16:55:06;-3.90;99.90
44513;DHT22;30219;50.588;9.504;2022-12-18T16:57:31;-3.90;99.90
44513;DHT22;30219;50.588;9.504;2022-12-18T16:59:57;-3.90;99.90
44513;DHT22;30219;50.588;9.504;2022-12-18T17:02:25;-3.90;99.90
44513;DHT22;30219;50.588;9.504;2022-12-18T17:04:55;-3.80;99.90
44513;DHT22;30219;50.588;9.504;2022-12-18T17:07:22;-3.80;99.90
44513;DHT22;30219;50.588;9.504;2022-12-18T17:09:48;-3.70;99.90
44513;DHT22;30219;50.588;9.504;2022-12-18T17:12:14;-3.70;99.90
44513;DHT22;30219;50.588;9.504;2022-12-18T17:14:40;-3.60;99.90
44513;DHT22;30219;50.588;9.504;2022-12-18T17:17:05;-3.60;99.90
44513;DHT22;30219;50.588;9.504;2022-12-18T17:19:31;-3.60;99.90
44513;DHT22;30219;50.588;9.504;2022-12-18T17:21:57;-3.60;99.90
44513;DHT22;30219;50.588;9.504;2022-12-18T17:24:23;-3.70;99.90
44513;DHT22;30219;50.588;9.504;2022-12-18T17:26:48;-3.70;99.90
44513;DHT22;30219;50.588;9.504;2022-12-18T17:29:16;-3.60;99.90
44513;DHT22;30219;50.588;9.504;2022-12-18T17:31:43;-3.60;99.90
44513;DHT22;30219;50.588;9.504;2022-12-18T17:34:10;-3.60;99.90
44513;DHT22;30219;50.588;9.504;2022-12-18T17:36:36;-3.50;99.90
44513;DHT22;30219;50.588;9.504;2022-12-18T17:39:03;-3.50;99.90
44513;DHT22;30219;50.588;9.504;2022-12-18T17:41:30;-3.50;99.90